sensor_id;sensor_type;location;lat;lon;timestamp;pressure;altitude;pressure_sealevel;temperature;humidity
12182;BME280;6154;51.550;12.138;2023-02-07T04:11:02;103067.22;;;0.24;57.73
12182;BME280;6154;51.550;12.138;2023-02-07T04:15:13;103061.81;;;0.18;57.84
12182;BME280;6154;51.550;12.138;2023-02-07T04:35:45;103064.34;;;0.15;58.13
12182;BME280;6154;51.550;12.138;2023-02-07T07:39:14;103135.53;;;1.69;61.22
12182;BME280;6154;51.550;12.138;2023-02-07T07:41:43;103134.91;;;1.78;61.35
12182;BME280;6154;51.550;12.138;2023-02-07T07:44:16;103136.78;;;1.83;61.24
12182;BME280;6154;51.550;12.138;2023-02-07T07:46:44;103140.12;;;1.78;61.30
12182;BME280;6154;51.550;12.138;2023-02-07T07:49:13;103147.34;;;1.88;61.23
12182;BME280;6154;51.550;12.138;2023-02-07T07:51:41;103154.56;;;1.98;61.01
12182;BME280;6154;51.550;12.138;2023-02-07T07:54:09;103162.59;;;2.07;61.13
12182;BME280;6154;51.550;12.138;2023-02-07T07:56:39;103162.00;;;2.17;61.01
12182;BME280;6154;51.550;12.138;2023-02-07T07:59:07;103163.09;;;2.27;60.84
12182;BME280;6154;51.550;12.138;2023-02-07T08:01:49;103160.59;;;2.32;60.81
12182;BME280;6154;51.550;12.138;2023-02-07T08:04:18;103163.31;;;2.36;60.66
12182;BME280;6154;51.550;12.138;2023-02-07T08:06:46;103159.09;;;2.41;60.66
12182;BME280;6154;51.550;12.138;2023-02-07T08:09:14;103157.44;;;2.46;60.66
12182;BME280;6154;51.550;12.138;2023-02-07T08:11:44;103161.97;;;2.53;60.80
12182;BME280;6154;51.550;12.138;2023-02-07T08:14:12;103162.41;;;2.36;60.79
12182;BME280;6154;51.550;12.138;2023-02-07T08:16:40;103157.47;;;2.48;60.58
12182;BME280;6154;51.550;12.138;2023-02-07T08:19:08;103156.75;;;2.53;60.71
12182;BME280;6154;51.550;12.138;2023-02-07T08:21:36;103165.75;;;2.68;60.73
12182;BME280;6154;51.550;12.138;2023-02-07T08:24:05;103164.16;;;2.73;60.67
12182;BME280;6154;51.550;12.138;2023-02-07T08:26:33;103164.25;;;2.79;60.70
12182;BME280;6154;51.550;12.138;2023-02-07T08:29:02;103156.28;;;2.71;60.75
12182;BME280;6154;51.550;12.138;2023-02-07T08:31:30;103172.31;;;2.50;60.93
12182;BME280;6154;51.550;12.138;2023-02-07T08:33:59;103159.53;;;2.61;60.88
12182;BME280;6154;51.550;12.138;2023-02-07T08:36:27;103159.84;;;2.76;60.78
12182;BME280;6154;51.550;12.138;2023-02-07T08:38:55;103166.81;;;2.76;60.38
12182;BME280;6154;51.550;12.138;2023-02-07T08:41:24;103157.41;;;2.84;60.42
12182;BME280;6154;51.550;12.138;2023-02-07T08:43:52;103154.03;;;2.89;60.66
12182;BME280;6154;51.550;12.138;2023-02-07T08:46:22;103158.59;;;3.00;60.57
12182;BME280;6154;51.550;12.138;2023-02-07T08:48:50;103157.97;;;3.11;60.38
12182;BME280;6154;51.550;12.138;2023-02-07T08:51:18;103165.87;;;3.14;60.02
12182;BME280;6154;51.550;12.138;2023-02-07T08:53:47;103170.28;;;3.17;60.29
12182;BME280;6154;51.550;12.138;2023-02-07T08:56:15;103166.97;;;3.26;60.24
12182;BME280;6154;51.550;12.138;2023-02-07T08:58:43;103175.84;;;3.32;60.25
12182;BME280;6154;51.550;12.138;2023-02-07T09:01:12;103171.56;;;3.37;60.10
12182;BME280;6154;51.550;12.138;2023-02-07T09:03:41;103174.31;;;3.45;60.01
12182;BME280;6154;51.550;12.138;2023-02-07T09:06:09;103181.38;;;3.49;59.84
12182;BME280;6154;51.550;12.138;2023-02-07T09:08:38;103174.56;;;3.59;59.83
12182;BME280;6154;51.550;12.138;2023-02-07T09:11:06;103178.94;;;3.60;59.79
12182;BME280;6154;51.550;12.138;2023-02-07T09:13:36;103171.28;;;3.70;59.70
12182;BME280;6154;51.550;12.138;2023-02-07T09:16:04;103177.56;;;3.80;59.27
12182;BME280;6154;51.550;12.138;2023-02-07T09:18:33;103176.78;;;3.84;58.71
12182;BME280;6154;51.550;12.138;2023-02-07T09:21:03;103171.63;;;3.90;58.89
12182;BME280;6154;51.550;12.138;2023-02-07T09:23:31;103171.69;;;3.92;58.80
12182;BME280;6154;51.550;12.138;2023-02-07T09:26:03;103162.19;;;3.98;58.87
12182;BME280;6154;51.550;12.138;2023-02-07T09:28:32;103167.41;;;3.98;58.14
12182;BME280;6154;51.550;12.138;2023-02-07T09:31:06;103163.94;;;3.99;58.31
12182;BME280;6154;51.550;12.138;2023-02-07T09:33:36;103160.59;;;4.10;58.65
12182;BME280;6154;51.550;12.138;2023-02-07T09:36:15;103167.75;;;4.20;58.89
12182;BME280;6154;51.550;12.138;2023-02-07T09:38:46;103155.63;;;4.25;58.51
12182;BME280;6154;51.550;12.138;2023-02-07T09:41:19;103159.09;;;4.24;58.65
12182;BME280;6154;51.550;12.138;2023-02-07T09:43:58;103150.41;;;4.28;58.93
12182;BME280;6154;51.550;12.138;2023-02-07T09:46:34;103154.81;;;4.29;58.32
12182;BME280;6154;51.550;12.138;2023-02-07T09:49:06;103154.09;;;4.41;58.60
12182;BME280;6154;51.550;12.138;2023-02-07T09:51:39;103154.19;;;4.45;58.53
12182;BME280;6154;51.550;12.138;2023-02-07T09:54:14;103149.81;;;4.46;58.49
12182;BME280;6154;51.550;12.138;2023-02-07T09:56:46;103152.50;;;4.50;58.67
12182;BME280;6154;51.550;12.138;2023-02-07T09:59:21;103154.38;;;4.60;58.83
12182;BME280;6154;51.550;12.138;2023-02-07T10:01:52;103144.00;;;4.67;58.78
12182;BME280;6154;51.550;12.138;2023-02-07T10:04:28;103144.97;;;4.73;58.72
12182;BME280;6154;51.550;12.138;2023-02-07T10:06:59;103145.72;;;4.66;58.50
12182;BME280;6154;51.550;12.138;2023-02-07T10:09:29;103145.84;;;4.74;58.68
12182;BME280;6154;51.550;12.138;2023-02-07T10:12:02;103138.91;;;4.79;58.32
12182;BME280;6154;51.550;12.138;2023-02-07T10:14:49;103130.25;;;4.86;58.40
12182;BME280;6154;51.550;12.138;2023-02-07T10:17:41;103130.03;;;4.71;58.28
12182;BME280;6154;51.550;12.138;2023-02-07T10:20:27;103130.97;;;4.73;58.74
12182;BME280;6154;51.550;12.138;2023-02-07T10:23:08;103125.78;;;4.80;58.96
12182;BME280;6154;51.550;12.138;2023-02-07T10:25:43;103124.13;;;4.85;58.85
12182;BME280;6154;51.550;12.138;2023-02-07T10:28:40;103134.66;;;4.90;58.26
12182;BME280;6154;51.550;12.138;2023-02-07T10:31:14;103133.97;;;5.03;58.57
12182;BME280;6154;51.550;12.138;2023-02-07T10:33:47;103149.81;;;5.12;58.63
12182;BME280;6154;51.550;12.138;2023-02-07T10:36:17;103148.19;;;5.24;58.84
12182;BME280;6154;51.550;12.138;2023-02-07T10:38:51;103150.81;;;5.22;58.30
12182;BME280;6154;51.550;12.138;2023-02-07T10:41:37;103156.06;;;5.24;58.30
12182;BME280;6154;51.550;12.138;2023-02-07T10:44:09;103152.59;;;5.26;58.62
12182;BME280;6154;51.550;12.138;2023-02-07T10:46:40;103155.22;;;5.28;58.41
12182;BME280;6154;51.550;12.138;2023-02-07T10:49:16;103160.50;;;5.31;58.36
12182;BME280;6154;51.550;12.138;2023-02-07T10:51:55;103161.34;;;5.25;58.01
12182;BME280;6154;51.550;12.138;2023-02-07T10:54:25;103152.50;;;5.20;58.35
12182;BME280;6154;51.550;12.138;2023-02-07T10:56:54;103158.75;;;5.30;58.70
12182;BME280;6154;51.550;12.138;2023-02-07T10:59:37;103146.62;;;5.41;58.38
12182;BME280;6154;51.550;12.138;2023-02-07T11:02:35;103152.03;;;5.53;58.28
12182;BME280;6154;51.550;12.138;2023-02-07T11:05:30;103145.09;;;5.61;57.61
12182;BME280;6154;51.550;12.138;2023-02-07T11:08:01;103140.66;;;5.54;56.89
12182;BME280;6154;51.550;12.138;2023-02-07T11:10:35;103144.09;;;5.50;57.76
12182;BME280;6154;51.550;12.138;2023-02-07T11:13:05;103132.56;;;5.36;57.53
12182;BME280;6154;51.550;12.138;2023-02-07T11:15:46;103143.09;;;5.37;58.11
12182;BME280;6154;51.550;12.138;2023-02-07T11:18:38;103143.88;;;5.30;57.44
12182;BME280;6154;51.550;12.138;2023-02-07T11:21:25;103140.41;;;5.31;58.00
12182;BME280;6154;51.550;12.138;2023-02-07T11:23:57;103132.66;;;5.45;58.43
12182;BME280;6154;51.550;12.138;2023-02-07T11:26:27;103126.56;;;5.49;58.41
12182;BME280;6154;51.550;12.138;2023-02-07T11:29:03;103122.28;;;5.60;58.39
12182;BME280;6154;51.550;12.138;2023-02-07T11:31:35;103133.75;;;5.68;58.26
12182;BME280;6154;51.550;12.138;2023-02-07T11:34:10;103136.38;;;5.68;57.99
12182;BME280;6154;51.550;12.138;2023-02-07T11:36:48;103142.59;;;5.73;57.72
12182;BME280;6154;51.550;12.138;2023-02-07T11:39:20;103144.38;;;5.81;57.98
12182;BME280;6154;51.550;12.138;2023-02-07T11:41:56;103139.09;;;5.76;57.39
12182;BME280;6154;51.550;12.138;2023-02-07T11:44:27;103140.69;;;5.60;56.91
12182;BME280;6154;51.550;12.138;2023-02-07T11:46:58;103145.84;;;5.49;57.48
12182;BME280;6154;51.550;12.138;2023-02-07T11:49:40;103136.25;;;5.53;57.93
12182;BME280;6154;51.550;12.138;2023-02-07T11:52:09;103144.03;;;5.42;57.52
12182;BME280;6154;51.550;12.138;2023-02-07T11:54:39;103143.97;;;5.39;57.90
12182;BME280;6154;51.550;12.138;2023-02-07T11:57:11;103148.44;;;5.45;58.15
12182;BME280;6154;51.550;12.138;2023-02-07T11:59:45;103144.09;;;5.50;58.26
12182;BME280;6154;51.550;12.138;2023-02-07T12:02:18;103146.81;;;5.59;58.44
12182;BME280;6154;51.550;12.138;2023-02-07T12:04:48;103146.00;;;5.65;58.05
12182;BME280;6154;51.550;12.138;2023-02-07T12:07:20;103148.63;;;5.66;57.92
12182;BME280;6154;51.550;12.138;2023-02-07T12:09:53;103137.25;;;5.66;58.17
12182;BME280;6154;51.550;12.138;2023-02-07T12:12:33;103135.50;;;5.68;58.12
12182;BME280;6154;51.550;12.138;2023-02-07T12:15:07;103127.63;;;5.69;58.11
12182;BME280;6154;51.550;12.138;2023-02-07T12:17:40;103128.50;;;5.67;58.08
12182;BME280;6154;51.550;12.138;2023-02-07T12:20:15;103134.72;;;5.80;58.22
12182;BME280;6154;51.550;12.138;2023-02-07T12:22:52;103128.66;;;5.84;58.19
12182;BME280;6154;51.550;12.138;2023-02-07T12:25:47;103134.78;;;5.83;57.86
12182;BME280;6154;51.550;12.138;2023-02-07T12:28:24;103126.91;;;5.84;57.83
12182;BME280;6154;51.550;12.138;2023-02-07T12:30:57;103138.28;;;5.82;57.85
12182;BME280;6154;51.550;12.138;2023-02-07T12:33:35;103123.41;;;5.88;57.89
12182;BME280;6154;51.550;12.138;2023-02-07T12:36:11;103127.78;;;5.82;57.28
12182;BME280;6154;51.550;12.138;2023-02-07T12:38:45;103135.59;;;5.78;57.36
12182;BME280;6154;51.550;12.138;2023-02-07T12:41:18;103131.06;;;5.61;57.02
12182;BME280;6154;51.550;12.138;2023-02-07T12:43:59;103132.94;;;5.72;57.72
12182;BME280;6154;51.550;12.138;2023-02-07T12:46:34;103133.81;;;5.71;57.15
12182;BME280;6154;51.550;12.138;2023-02-07T12:52:30;103126.03;;;5.84;57.29
12182;BME280;6154;51.550;12.138;2023-02-07T12:55:14;103127.59;;;5.63;56.95
12182;BME280;6154;51.550;12.138;2023-02-07T12:57:52;103129.34;;;5.61;57.13
12182;BME280;6154;51.550;12.138;2023-02-07T13:00:28;103129.19;;;5.49;57.29
12182;BME280;6154;51.550;12.138;2023-02-07T13:03:11;103125.69;;;5.47;57.37
12182;BME280;6154;51.550;12.138;2023-02-07T13:05:53;103130.09;;;5.51;57.48
12182;BME280;6154;51.550;12.138;2023-02-07T13:08:32;103133.56;;;5.45;57.62
12182;BME280;6154;51.550;12.138;2023-02-07T13:11:09;103130.03;;;5.42;57.59
12182;BME280;6154;51.550;12.138;2023-02-07T13:13:54;103121.31;;;5.46;57.73
12182;BME280;6154;51.550;12.138;2023-02-07T13:16:32;103122.28;;;5.60;57.59
12182;BME280;6154;51.550;12.138;2023-02-07T13:19:10;103125.88;;;5.68;57.40
12182;BME280;6154;51.550;12.138;2023-02-07T13:21:46;103114.56;;;5.77;57.41
12182;BME280;6154;51.550;12.138;2023-02-07T13:24:20;103112.84;;;5.81;57.16
12182;BME280;6154;51.550;12.138;2023-02-07T13:26:53;103106.75;;;5.83;57.25
12182;BME280;6154;51.550;12.138;2023-02-07T13:29:23;103113.78;;;5.89;57.44
12182;BME280;6154;51.550;12.138;2023-02-07T13:31:57;103107.50;;;5.68;56.62
12182;BME280;6154;51.550;12.138;2023-02-07T13:34:30;103110.03;;;5.61;56.73
12182;BME280;6154;51.550;12.138;2023-02-07T13:36:59;103111.75;;;5.56;56.99
12182;BME280;6154;51.550;12.138;2023-02-07T13:39:49;103116.22;;;5.63;57.45
12182;BME280;6154;51.550;12.138;2023-02-07T13:42:26;103110.12;;;5.70;57.52
12182;BME280;6154;51.550;12.138;2023-02-07T13:45:00;103110.19;;;5.74;57.33
12182;BME280;6154;51.550;12.138;2023-02-07T13:47:48;103114.66;;;5.86;57.51
12182;BME280;6154;51.550;12.138;2023-02-07T13:50:29;103118.09;;;5.79;57.07
12182;BME280;6154;51.550;12.138;2023-02-07T13:53:13;103116.34;;;5.80;57.30
12182;BME280;6154;51.550;12.138;2023-02-07T13:55:44;103116.34;;;5.81;57.36
12182;BME280;6154;51.550;12.138;2023-02-07T13:58:49;103118.16;;;5.84;57.38
12182;BME280;6154;51.550;12.138;2023-02-07T14:01:36;103112.88;;;5.82;56.91
12182;BME280;6154;51.550;12.138;2023-02-07T14:04:13;103114.75;;;5.95;57.08
12182;BME280;6154;51.550;12.138;2023-02-07T14:06:43;103110.38;;;5.94;57.18
12182;BME280;6154;51.550;12.138;2023-02-07T14:09:16;103098.13;;;5.96;57.05
12182;BME280;6154;51.550;12.138;2023-02-07T14:11:49;103099.88;;;5.97;57.17
12182;BME280;6154;51.550;12.138;2023-02-07T14:14:25;103095.56;;;6.02;57.18
12182;BME280;6154;51.550;12.138;2023-02-07T14:16:57;103095.56;;;6.07;56.85
12182;BME280;6154;51.550;12.138;2023-02-07T14:19:50;103082.41;;;6.04;56.73
12182;BME280;6154;51.550;12.138;2023-02-07T14:22:21;103086.81;;;6.08;56.41
12182;BME280;6154;51.550;12.138;2023-02-07T14:25:17;103089.38;;;5.99;56.48
12182;BME280;6154;51.550;12.138;2023-02-07T14:28:05;103082.25;;;5.87;56.15
12182;BME280;6154;51.550;12.138;2023-02-07T14:30:57;103063.78;;;5.78;56.25
12182;BME280;6154;51.550;12.138;2023-02-07T14:33:31;103068.09;;;5.70;56.54
12182;BME280;6154;51.550;12.138;2023-02-07T14:36:17;103069.03;;;5.73;56.91
12182;BME280;6154;51.550;12.138;2023-02-07T14:39:02;103055.91;;;5.78;56.67
12182;BME280;6154;51.550;12.138;2023-02-07T14:41:34;103054.13;;;5.74;56.42
12182;BME280;6154;51.550;12.138;2023-02-07T14:44:05;103050.56;;;5.67;56.71
12182;BME280;6154;51.550;12.138;2023-02-07T14:46:39;103054.00;;;5.57;56.63
12182;BME280;6154;51.550;12.138;2023-02-07T14:49:13;103046.09;;;5.54;56.95
12182;BME280;6154;51.550;12.138;2023-02-07T14:51:46;103040.81;;;5.51;56.84
12182;BME280;6154;51.550;12.138;2023-02-07T14:54:18;103045.16;;;5.46;56.77
12182;BME280;6154;51.550;12.138;2023-02-07T14:56:53;103047.78;;;5.44;56.91
12182;BME280;6154;51.550;12.138;2023-02-07T14:59:32;103040.66;;;5.33;56.76
12182;BME280;6154;51.550;12.138;2023-02-07T15:02:29;103035.25;;;5.17;56.67
12182;BME280;6154;51.550;12.138;2023-02-07T15:05:15;103038.75;;;5.16;56.51
12182;BME280;6154;51.550;12.138;2023-02-07T15:07:46;103025.63;;;5.13;56.54
12182;BME280;6154;51.550;12.138;2023-02-07T15:10:21;103031.75;;;5.17;56.98
12182;BME280;6154;51.550;12.138;2023-02-07T15:12:50;103021.31;;;5.22;57.08
12182;BME280;6154;51.550;12.138;2023-02-07T15:15:24;103015.19;;;5.23;57.02
12182;BME280;6154;51.550;12.138;2023-02-07T15:17:56;103016.09;;;5.25;56.98
12182;BME280;6154;51.550;12.138;2023-02-07T15:20:28;103020.47;;;5.26;56.90
12182;BME280;6154;51.550;12.138;2023-02-07T15:23:02;103028.34;;;5.26;56.81
12182;BME280;6154;51.550;12.138;2023-02-07T15:25:34;103023.94;;;5.22;56.59
12182;BME280;6154;51.550;12.138;2023-02-07T15:28:05;103029.13;;;5.17;56.63
12182;BME280;6154;51.550;12.138;2023-02-07T15:30:53;103030.88;;;5.18;56.77
12182;BME280;6154;51.550;12.138;2023-02-07T15:33:23;103029.13;;;5.15;56.76
12182;BME280;6154;51.550;12.138;2023-02-07T15:35:54;103025.63;;;5.13;56.76
12182;BME280;6154;51.550;12.138;2023-02-07T15:38:25;103033.41;;;5.07;56.72
12182;BME280;6154;51.550;12.138;2023-02-07T15:40:54;103041.19;;;4.98;56.72
12182;BME280;6154;51.550;12.138;2023-02-07T15:43:26;103040.22;;;4.88;56.65
12182;BME280;6154;51.550;12.138;2023-02-07T15:46:00;103044.47;;;4.79;56.81
12182;BME280;6154;51.550;12.138;2023-02-07T15:48:29;103036.56;;;4.76;56.96
12182;BME280;6154;51.550;12.138;2023-02-07T15:51:00;103038.28;;;4.72;56.98
12182;BME280;6154;51.550;12.138;2023-02-07T15:53:32;103045.28;;;4.72;57.13
12182;BME280;6154;51.550;12.138;2023-02-07T15:56:03;103046.97;;;4.70;57.03
12182;BME280;6154;51.550;12.138;2023-02-07T15:58:34;103050.44;;;4.64;57.05
12182;BME280;6154;51.550;12.138;2023-02-07T16:01:05;103048.56;;;4.55;57.22
12182;BME280;6154;51.550;12.138;2023-02-07T16:03:39;103045.06;;;4.53;57.28
12182;BME280;6154;51.550;12.138;2023-02-07T16:06:12;103047.69;;;4.53;57.23
12182;BME280;6154;51.550;12.138;2023-02-07T16:08:46;103049.44;;;4.54;57.22
12182;BME280;6154;51.550;12.138;2023-02-07T16:11:34;103043.31;;;4.55;56.98
12182;BME280;6154;51.550;12.138;2023-02-07T16:14:13;103043.31;;;4.54;56.90
12182;BME280;6154;51.550;12.138;2023-02-07T16:16:48;103045.03;;;4.52;56.91
12182;BME280;6154;51.550;12.138;2023-02-07T16:19:18;103042.34;;;4.47;56.88
12182;BME280;6154;51.550;12.138;2023-02-07T16:21:50;103041.47;;;4.45;56.99
12182;BME280;6154;51.550;12.138;2023-02-07T16:24:23;103039.66;;;4.41;57.15
12182;BME280;6154;51.550;12.138;2023-02-07T16:26:54;103037.00;;;4.40;57.15
12182;BME280;6154;51.550;12.138;2023-02-07T16:29:24;103040.47;;;4.37;57.35
12182;BME280;6154;51.550;12.138;2023-02-07T16:31:54;103050.94;;;4.34;57.41
12182;BME280;6154;51.550;12.138;2023-02-07T16:34:22;103044.72;;;4.27;57.62
12182;BME280;6154;51.550;12.138;2023-02-07T16:36:53;103054.34;;;4.30;57.60
12182;BME280;6154;51.550;12.138;2023-02-07T16:39:22;103050.81;;;4.25;57.41
12182;BME280;6154;51.550;12.138;2023-02-07T16:41:54;103063.00;;;4.21;57.26
12182;BME280;6154;51.550;12.138;2023-02-07T16:44:24;103067.16;;;4.10;57.49
12182;BME280;6154;51.550;12.138;2023-02-07T16:46:54;103075.91;;;4.11;57.52
12182;BME280;6154;51.550;12.138;2023-02-07T16:49:23;103081.09;;;4.06;57.60
12182;BME280;6154;51.550;12.138;2023-02-07T16:51:52;103074.13;;;4.08;57.64
12182;BME280;6154;51.550;12.138;2023-02-07T16:54:22;103069.78;;;4.09;57.69
12182;BME280;6154;51.550;12.138;2023-02-07T16:56:53;103073.28;;;4.11;57.63
12182;BME280;6154;51.550;12.138;2023-02-07T16:59:22;103080.31;;;4.12;57.44
12182;BME280;6154;51.550;12.138;2023-02-07T17:01:52;103085.59;;;4.15;57.57
12182;BME280;6154;51.550;12.138;2023-02-07T17:04:21;103082.94;;;4.13;57.76
12182;BME280;6154;51.550;12.138;2023-02-07T17:06:49;103088.22;;;4.16;57.80
12182;BME280;6154;51.550;12.138;2023-02-07T17:09:19;103082.94;;;4.12;58.03
12182;BME280;6154;51.550;12.138;2023-02-07T17:11:50;103081.16;;;4.11;58.14
12182;BME280;6154;51.550;12.138;2023-02-07T17:14:21;103082.00;;;4.08;58.01
12182;BME280;6154;51.550;12.138;2023-02-07T17:16:50;103078.50;;;4.09;57.78
12182;BME280;6154;51.550;12.138;2023-02-07T17:19:20;103082.00;;;4.10;57.76
12182;BME280;6154;51.550;12.138;2023-02-07T17:21:49;103082.84;;;4.07;57.79
12182;BME280;6154;51.550;12.138;2023-02-07T17:24:18;103082.84;;;4.06;57.91
12182;BME280;6154;51.550;12.138;2023-02-07T17:26:51;103078.47;;;4.04;57.81
12182;BME280;6154;51.550;12.138;2023-02-07T17:29:21;103084.47;;;3.99;57.69
12182;BME280;6154;51.550;12.138;2023-02-07T17:31:50;103083.56;;;3.97;57.43
12182;BME280;6154;51.550;12.138;2023-02-07T17:34:18;103083.50;;;3.92;57.74
12182;BME280;6154;51.550;12.138;2023-02-07T17:36:48;103081.69;;;3.88;57.95
12182;BME280;6154;51.550;12.138;2023-02-07T17:39:18;103087.75;;;3.86;57.99
12182;BME280;6154;51.550;12.138;2023-02-07T17:41:46;103092.13;;;3.85;58.05
12182;BME280;6154;51.550;12.138;2023-02-07T17:44:16;103094.75;;;3.87;57.87
12182;BME280;6154;51.550;12.138;2023-02-07T17:46:47;103104.31;;;3.83;57.89
12182;BME280;6154;51.550;12.138;2023-02-07T17:49:16;103111.28;;;3.81;58.19
12182;BME280;6154;51.550;12.138;2023-02-07T17:51:44;103109.44;;;3.75;58.15
12182;BME280;6154;51.550;12.138;2023-02-07T17:54:12;103112.88;;;3.73;58.27
12182;BME280;6154;51.550;12.138;2023-02-07T17:56:41;103118.13;;;3.74;58.36
12182;BME280;6154;51.550;12.138;2023-02-07T17:59:17;103112.06;;;3.77;58.20
12182;BME280;6154;51.550;12.138;2023-02-07T18:01:48;103112.91;;;3.76;58.17
12182;BME280;6154;51.550;12.138;2023-02-07T18:04:16;103114.72;;;3.80;58.04
12182;BME280;6154;51.550;12.138;2023-02-07T18:06:46;103112.16;;;3.82;58.06
12182;BME280;6154;51.550;12.138;2023-02-07T18:09:17;103118.19;;;3.79;58.17
12182;BME280;6154;51.550;12.138;2023-02-07T18:11:46;103117.31;;;3.79;58.09
12182;BME280;6154;51.550;12.138;2023-02-07T18:14:14;103111.97;;;3.71;58.19
12182;BME280;6154;51.550;12.138;2023-02-07T18:16:43;103118.13;;;3.73;58.02
12182;BME280;6154;51.550;12.138;2023-02-07T18:19:14;103125.06;;;3.71;58.02
12182;BME280;6154;51.550;12.138;2023-02-07T18:21:43;103124.94;;;3.65;58.11
12182;BME280;6154;51.550;12.138;2023-02-07T18:24:12;103118.84;;;3.64;58.09
12182;BME280;6154;51.550;12.138;2023-02-07T18:26:40;103129.28;;;3.61;58.14
12182;BME280;6154;51.550;12.138;2023-02-07T18:29:08;103132.69;;;3.59;58.20
12182;BME280;6154;51.550;12.138;2023-02-07T18:31:36;103137.03;;;3.57;58.39
12182;BME280;6154;51.550;12.138;2023-02-07T18:34:06;103134.34;;;3.54;58.40
12182;BME280;6154;51.550;12.138;2023-02-07T18:36:35;103134.22;;;3.47;58.29
12182;BME280;6154;51.550;12.138;2023-02-07T18:39:06;103142.91;;;3.43;58.36
12182;BME280;6154;51.550;12.138;2023-02-07T18:41:35;103149.00;;;3.42;58.21
12182;BME280;6154;51.550;12.138;2023-02-07T18:44:04;103142.81;;;3.40;58.37
12182;BME280;6154;51.550;12.138;2023-02-07T18:46:32;103150.62;;;3.37;58.54
12182;BME280;6154;51.550;12.138;2023-02-07T18:49:01;103148.06;;;3.40;58.45
12182;BME280;6154;51.550;12.138;2023-02-07T18:51:30;103142.81;;;3.40;58.55
12182;BME280;6154;51.550;12.138;2023-02-07T18:53:58;103149.75;;;3.37;58.68
12182;BME280;6154;51.550;12.138;2023-02-07T18:56:26;103147.16;;;3.38;58.66
12182;BME280;6154;51.550;12.138;2023-02-07T18:58:54;103146.34;;;3.41;58.61
12182;BME280;6154;51.550;12.138;2023-02-07T19:01:24;103137.66;;;3.43;58.74
12182;BME280;6154;51.550;12.138;2023-02-07T19:03:53;103142.03;;;3.44;58.79
12182;BME280;6154;51.550;12.138;2023-02-07T19:06:23;103129.78;;;3.42;59.02
12182;BME280;6154;51.550;12.138;2023-02-07T19:08:53;103136.75;;;3.41;58.88
12182;BME280;6154;51.550;12.138;2023-02-07T19:11:24;103131.53;;;3.41;58.87
12182;BME280;6154;51.550;12.138;2023-02-07T19:13:53;103141.94;;;3.40;58.80
12182;BME280;6154;51.550;12.138;2023-02-07T19:16:22;103137.53;;;3.37;59.06
12182;BME280;6154;51.550;12.138;2023-02-07T19:18:51;103141.91;;;3.38;59.09
12182;BME280;6154;51.550;12.138;2023-02-07T19:21:22;103138.53;;;3.42;58.82
12182;BME280;6154;51.550;12.138;2023-02-07T19:23:55;103133.22;;;3.39;58.74
12182;BME280;6154;51.550;12.138;2023-02-07T19:26:27;103139.28;;;3.38;58.71
12182;BME280;6154;51.550;12.138;2023-02-07T19:28:56;103132.22;;;3.33;58.94
12182;BME280;6154;51.550;12.138;2023-02-07T19:31:25;103132.25;;;3.34;59.00
12182;BME280;6154;51.550;12.138;2023-02-07T19:33:56;103130.59;;;3.39;58.77
12182;BME280;6154;51.550;12.138;2023-02-07T19:36:25;103138.53;;;3.42;58.61
12182;BME280;6154;51.550;12.138;2023-02-07T19:38:56;103138.50;;;3.41;58.73
12182;BME280;6154;51.550;12.138;2023-02-07T19:41:27;103140.28;;;3.43;58.61
12182;BME280;6154;51.550;12.138;2023-02-07T19:43:55;103139.28;;;3.38;58.92
12182;BME280;6154;51.550;12.138;2023-02-07T19:46:24;103134.87;;;3.34;59.15
12182;BME280;6154;51.550;12.138;2023-02-07T19:48:53;103134.97;;;3.40;58.88
12182;BME280;6154;51.550;12.138;2023-02-07T19:51:23;103137.59;;;3.40;58.71
12182;BME280;6154;51.550;12.138;2023-02-07T19:53:55;103132.31;;;3.37;58.50
12182;BME280;6154;51.550;12.138;2023-02-07T19:56:29;103123.59;;;3.38;58.63
12182;BME280;6154;51.550;12.138;2023-02-07T19:59:01;103131.37;;;3.34;58.71
12182;BME280;6154;51.550;12.138;2023-02-07T20:01:32;103125.25;;;3.33;58.76
12182;BME280;6154;51.550;12.138;2023-02-07T20:04:01;103128.72;;;3.31;58.74
12182;BME280;6154;51.550;12.138;2023-02-07T20:06:32;103118.19;;;3.29;58.84
12182;BME280;6154;51.550;12.138;2023-02-07T20:09:04;103118.13;;;3.25;58.96
12182;BME280;6154;51.550;12.138;2023-02-07T20:11:33;103114.50;;;3.18;58.88
12182;BME280;6154;51.550;12.138;2023-02-07T20:14:02;103119.00;;;3.25;58.73
12182;BME280;6154;51.550;12.138;2023-02-07T20:16:33;103110.12;;;3.17;58.98
12182;BME280;6154;51.550;12.138;2023-02-07T20:19:03;103121.47;;;3.19;59.00
12182;BME280;6154;51.550;12.138;2023-02-07T20:21:33;103115.47;;;3.23;59.03
12182;BME280;6154;51.550;12.138;2023-02-07T20:24:04;103125.94;;;3.23;59.01
12182;BME280;6154;51.550;12.138;2023-02-07T20:26:34;103127.69;;;3.23;58.98
12182;BME280;6154;51.550;12.138;2023-02-07T20:29:05;103125.13;;;3.26;58.83
12182;BME280;6154;51.550;12.138;2023-02-07T20:31:36;103130.28;;;3.23;58.99
12182;BME280;6154;51.550;12.138;2023-02-07T20:34:04;103133.78;;;3.23;58.86
12182;BME280;6154;51.550;12.138;2023-02-07T20:36:34;103125.94;;;3.23;58.89
12182;BME280;6154;51.550;12.138;2023-02-07T20:39:09;103127.38;;;3.09;59.18
12182;BME280;6154;51.550;12.138;2023-02-07T20:41:38;103130.97;;;3.12;58.94
12182;BME280;6154;51.550;12.138;2023-02-07T20:44:10;103127.47;;;3.12;58.94
12182;BME280;6154;51.550;12.138;2023-02-07T20:46:40;103129.06;;;3.05;58.98
12182;BME280;6154;51.550;12.138;2023-02-07T20:49:15;103122.91;;;3.02;59.06
12182;BME280;6154;51.550;12.138;2023-02-07T20:51:46;103122.84;;;3.00;59.01
12182;BME280;6154;51.550;12.138;2023-02-07T20:54:18;103124.72;;;3.06;58.97
12182;BME280;6154;51.550;12.138;2023-02-07T20:56:47;103123.81;;;3.04;58.99
12182;BME280;6154;51.550;12.138;2023-02-07T20:59:17;103120.41;;;3.09;58.86
12182;BME280;6154;51.550;12.138;2023-02-07T21:01:46;103126.50;;;3.08;58.95
12182;BME280;6154;51.550;12.138;2023-02-07T21:04:15;103128.28;;;3.09;58.96